Astoria, OR

6:04 PM PDT on October 25, 2014 (GMT -0700)
The Slope of South | Change Station
CLOSE
Current Station
Personal Weather Station
Location: Astoria, OR
Elevation: 213 ft
Nearby Weather Stations

Elev 213 ft 46.18 °N, 123.84 °W | Updated 11 minutes ago

Rain
Rain
53.2 °F
Feels Like 53.2 °F
N
6.8
Wind Variable Wind from West

Today
High -- | Low -- °F
--% Chance of Precip.
Yesterday
High -- | Low -- °F
Precip. -- in
7:46 AM 6:11 PM
Waxing Crescent, 5% visible
Pressure 29.51 in
Visibility 8.0 miles
Clouds Scattered Clouds 2100 ft
Mostly Cloudy 2700 ft
Overcast 4300 ft
Dew Point 52 °F
Humidity 96%
Rainfall 0.52 in
Snow Depth Not available.
UV 0 out of 12
Pollen .40 out of 12
Air Quality Not available.
Flu Activity Sporadic
METAR KAST 260055Z AUTO 28020G31KT 8SM -RA SCT021 BKN027 OVC043 12/09 A2951 RMK AO2 PK WND 26036/0012 PRESRR SLP993 P0002 T01220089

More Conditions Fewer Conditions

Pressure 29.51 in
Visibility 8.0 miles
Clouds Scattered Clouds 2100 ft
Mostly Cloudy 2700 ft
Overcast 4300 ft
Dew Point 52 °F
Humidity 96%
Rainfall 0.52 in
Snow Depth Not available.
UV 0 out of 12
Pollen .40 out of 12
Air Quality Not available.
Flu Activity Sporadic
METAR KAST 260055Z AUTO 28020G31KT 8SM -RA SCT021 BKN027 OVC043 12/09 A2951 RMK AO2 PK WND 26036/0012 PRESRR SLP993 P0002 T01220089

More Conditions Fewer Conditions

10-Day Weather Forecast

Almanac

Astronomy

Oct. 25, 2014 Rise Set
Actual Time 7:46 AM PDT 6:11 PM PDT
Civil Twilight 7:15 AM PDT 6:42 PM PDT
Nautical Twilight 6:40 AM PDT 7:17 PM PDT
Astronomical Twilight 6:05 AM PDT 7:52 PM PDT
Moon 9:35 AM PDT (10/25) 7:33 PM PDT (10/25)
Length of Visible Light 11h 26m
Length of Day
10h 25m
Tomorrow will be 3m 2s shorter.
Waxing Crescent, 5% of the Moon is Illuminated
Today
Waxing Crescent
Oct 30
First Quarter
Nov 6
Full
Nov 14
Last Quarter
Nov 22
New

Today's Extremes

State Highs State Lows

Community

WunderPhotos

Upload Photos

1,765,057 photos uploaded!

Nearby

Snow Depth

Station Depth Elevation
Saddle Mountain 3 in 3250 ft
Seine Creek 0 in 2000 ft
North Fork 0 in 3120 ft
Greenpoint 0 in 3200 ft
Red Hill 0 in 4400 ft

Earthquake Activity

City Distance Mag. Time & Date
No recent earthquake activity has been reported nearby.
Minimum magnitude displayed is 2.5.

Coastal Water Temperatures

Place Temperature
Astoria, OR 59.0 °F
Westport, WA 57.9 °F

Nearby Weather Stations